sensor_id;sensor_type;location;lat;lon;timestamp;temperature;humidity
19920;DHT22;10122;50.074;19.920;2022-07-09T00:00:06;16.60;99.90
19920;DHT22;10122;50.074;19.920;2022-07-09T00:02:32;16.60;99.90
19920;DHT22;10122;50.074;19.920;2022-07-09T00:04:59;16.60;99.90
19920;DHT22;10122;50.074;19.920;2022-07-09T00:07:25;16.70;99.90
19920;DHT22;10122;50.074;19.920;2022-07-09T00:09:52;16.60;99.90
19920;DHT22;10122;50.074;19.920;2022-07-09T00:12:18;16.60;99.90
19920;DHT22;10122;50.074;19.920;2022-07-09T00:14:43;16.50;99.90
19920;DHT22;10122;50.074;19.920;2022-07-09T00:17:09;16.50;99.90
19920;DHT22;10122;50.074;19.920;2022-07-09T00:19:35;16.60;99.90
19920;DHT22;10122;50.074;19.920;2022-07-09T00:22:01;16.70;99.90
19920;DHT22;10122;50.074;19.920;2022-07-09T00:24:26;16.70;99.90
19920;DHT22;10122;50.074;19.920;2022-07-09T00:26:52;16.70;99.90
19920;DHT22;10122;50.074;19.920;2022-07-09T00:29:18;16.50;99.90
19920;DHT22;10122;50.074;19.920;2022-07-09T00:31:43;16.50;99.90
19920;DHT22;10122;50.074;19.920;2022-07-09T00:34:11;16.60;99.90
19920;DHT22;10122;50.074;19.920;2022-07-09T00:36:37;16.70;99.90
19920;DHT22;10122;50.074;19.920;2022-07-09T00:39:03;16.60;99.90
19920;DHT22;10122;50.074;19.920;2022-07-09T00:41:29;16.80;99.90
19920;DHT22;10122;50.074;19.920;2022-07-09T00:43:54;16.90;99.90
19920;DHT22;10122;50.074;19.920;2022-07-09T00:46:20;17.00;99.90
19920;DHT22;10122;50.074;19.920;2022-07-09T00:48:46;17.00;99.90
19920;DHT22;10122;50.074;19.920;2022-07-09T00:51:13;16.90;99.90
19920;DHT22;10122;50.074;19.920;2022-07-09T00:53:40;16.90;99.90
19920;DHT22;10122;50.074;19.920;2022-07-09T00:56:06;16.90;99.90
19920;DHT22;10122;50.074;19.920;2022-07-09T00:58:33;16.90;99.90
19920;DHT22;10122;50.074;19.920;2022-07-09T01:01:00;16.90;99.90
19920;DHT22;10122;50.074;19.920;2022-07-09T01:03:26;17.00;99.90
19920;DHT22;10122;50.074;19.920;2022-07-09T01:05:52;17.10;99.90
19920;DHT22;10122;50.074;19.920;2022-07-09T01:08:18;17.10;99.90
19920;DHT22;10122;50.074;19.920;2022-07-09T01:10:45;17.10;99.90
19920;DHT22;10122;50.074;19.920;2022-07-09T01:13:11;16.90;99.90
19920;DHT22;10122;50.074;19.920;2022-07-09T01:15:37;16.90;99.90
19920;DHT22;10122;50.074;19.920;2022-07-09T01:18:03;16.90;99.90
19920;DHT22;10122;50.074;19.920;2022-07-09T01:20:29;16.80;99.90
19920;DHT22;10122;50.074;19.920;2022-07-09T01:22:55;16.80;99.90
19920;DHT22;10122;50.074;19.920;2022-07-09T01:25:27;16.90;99.90
19920;DHT22;10122;50.074;19.920;2022-07-09T01:27:56;16.90;99.90
19920;DHT22;10122;50.074;19.920;2022-07-09T01:30:26;16.90;99.90
19920;DHT22;10122;50.074;19.920;2022-07-09T01:32:52;16.70;99.90
19920;DHT22;10122;50.074;19.920;2022-07-09T01:35:19;16.70;99.90
19920;DHT22;10122;50.074;19.920;2022-07-09T01:37:44;16.50;99.90
19920;DHT22;10122;50.074;19.920;2022-07-09T01:40:11;16.50;99.90
19920;DHT22;10122;50.074;19.920;2022-07-09T01:42:37;16.50;99.90
19920;DHT22;10122;50.074;19.920;2022-07-09T01:45:02;16.50;99.90
19920;DHT22;10122;50.074;19.920;2022-07-09T01:47:28;16.40;99.90
19920;DHT22;10122;50.074;19.920;2022-07-09T01:49:54;16.40;99.90
19920;DHT22;10122;50.074;19.920;2022-07-09T01:52:20;16.40;99.90
19920;DHT22;10122;50.074;19.920;2022-07-09T01:54:45;16.40;99.90
19920;DHT22;10122;50.074;19.920;2022-07-09T01:57:11;16.30;99.90
19920;DHT22;10122;50.074;19.920;2022-07-09T01:59:37;16.30;99.90
19920;DHT22;10122;50.074;19.920;2022-07-09T02:02:02;16.30;99.90
19920;DHT22;10122;50.074;19.920;2022-07-09T02:04:28;16.30;99.90
19920;DHT22;10122;50.074;19.920;2022-07-09T02:06:54;16.40;99.90
19920;DHT22;10122;50.074;19.920;2022-07-09T02:09:21;16.30;99.90
19920;DHT22;10122;50.074;19.920;2022-07-09T02:11:47;16.30;99.90
19920;DHT22;10122;50.074;19.920;2022-07-09T02:14:13;16.30;99.90
19920;DHT22;10122;50.074;19.920;2022-07-09T02:16:39;16.30;99.90
19920;DHT22;10122;50.074;19.920;2022-07-09T02:19:05;16.20;99.90
19920;DHT22;10122;50.074;19.920;2022-07-09T02:21:32;16.20;99.90
19920;DHT22;10122;50.074;19.920;2022-07-09T02:23:57;16.10;99.90
19920;DHT22;10122;50.074;19.920;2022-07-09T02:26:27;16.20;99.90
19920;DHT22;10122;50.074;19.920;2022-07-09T02:28:55;16.20;99.90
19920;DHT22;10122;50.074;19.920;2022-07-09T02:31:20;16.20;99.90
19920;DHT22;10122;50.074;19.920;2022-07-09T02:33:46;16.10;99.90
19920;DHT22;10122;50.074;19.920;2022-07-09T02:36:12;16.10;99.90
19920;DHT22;10122;50.074;19.920;2022-07-09T02:38:37;16.10;99.90
19920;DHT22;10122;50.074;19.920;2022-07-09T02:41:03;16.10;99.90
19920;DHT22;10122;50.074;19.920;2022-07-09T02:43:29;16.10;99.90
19920;DHT22;10122;50.074;19.920;2022-07-09T02:45:55;16.00;99.90
19920;DHT22;10122;50.074;19.920;2022-07-09T02:48:22;16.10;99.90
19920;DHT22;10122;50.074;19.920;2022-07-09T02:50:49;16.10;99.90
19920;DHT22;10122;50.074;19.920;2022-07-09T02:53:15;16.10;99.90
19920;DHT22;10122;50.074;19.920;2022-07-09T02:55:40;16.00;99.90
19920;DHT22;10122;50.074;19.920;2022-07-09T02:58:06;16.00;99.90
19920;DHT22;10122;50.074;19.920;2022-07-09T03:00:32;15.90;99.90
19920;DHT22;10122;50.074;19.920;2022-07-09T03:02:58;15.90;99.90
19920;DHT22;10122;50.074;19.920;2022-07-09T03:05:24;16.00;99.90
19920;DHT22;10122;50.074;19.920;2022-07-09T03:07:49;16.00;99.90
19920;DHT22;10122;50.074;19.920;2022-07-09T03:10:15;16.10;99.90
19920;DHT22;10122;50.074;19.920;2022-07-09T03:12:41;16.10;99.90
19920;DHT22;10122;50.074;19.920;2022-07-09T03:15:08;16.10;99.90
19920;DHT22;10122;50.074;19.920;2022-07-09T03:17:34;16.20;99.90
19920;DHT22;10122;50.074;19.920;2022-07-09T03:20:00;16.00;99.90
19920;DHT22;10122;50.074;19.920;2022-07-09T03:22:25;16.00;99.90
19920;DHT22;10122;50.074;19.920;2022-07-09T03:24:51;16.00;99.90
19920;DHT22;10122;50.074;19.920;2022-07-09T03:27:17;16.00;99.90
19920;DHT22;10122;50.074;19.920;2022-07-09T03:29:43;15.90;99.90
19920;DHT22;10122;50.074;19.920;2022-07-09T03:32:08;16.10;99.90
19920;DHT22;10122;50.074;19.920;2022-07-09T03:34:34;16.20;99.90
19920;DHT22;10122;50.074;19.920;2022-07-09T03:37:00;16.30;99.90
19920;DHT22;10122;50.074;19.920;2022-07-09T03:39:26;16.30;99.90
19920;DHT22;10122;50.074;19.920;2022-07-09T03:41:52;16.30;99.90
19920;DHT22;10122;50.074;19.920;2022-07-09T03:44:17;16.20;99.90
19920;DHT22;10122;50.074;19.920;2022-07-09T03:46:43;16.10;99.90
19920;DHT22;10122;50.074;19.920;2022-07-09T03:49:09;16.20;99.90
19920;DHT22;10122;50.074;19.920;2022-07-09T03:51:36;16.30;99.90
19920;DHT22;10122;50.074;19.920;2022-07-09T03:54:02;16.40;99.90
19920;DHT22;10122;50.074;19.920;2022-07-09T03:56:28;16.30;99.90
19920;DHT22;10122;50.074;19.920;2022-07-09T03:58:53;16.40;99.90
19920;DHT22;10122;50.074;19.920;2022-07-09T04:01:19;16.50;99.90
19920;DHT22;10122;50.074;19.920;2022-07-09T04:03:45;16.60;99.90
19920;DHT22;10122;50.074;19.920;2022-07-09T04:06:11;16.50;99.90
19920;DHT22;10122;50.074;19.920;2022-07-09T04:08:36;16.60;99.90
19920;DHT22;10122;50.074;19.920;2022-07-09T04:11:02;16.50;99.90
19920;DHT22;10122;50.074;19.920;2022-07-09T04:13:28;16.40;99.90
19920;DHT22;10122;50.074;19.920;2022-07-09T04:15:54;16.40;99.90
19920;DHT22;10122;50.074;19.920;2022-07-09T04:18:20;16.50;99.90
19920;DHT22;10122;50.074;19.920;2022-07-09T04:20:45;16.50;99.90
19920;DHT22;10122;50.074;19.920;2022-07-09T04:23:11;16.60;99.90
19920;DHT22;10122;50.074;19.920;2022-07-09T04:25:37;16.70;99.90
19920;DHT22;10122;50.074;19.920;2022-07-09T04:28:02;16.80;99.90
19920;DHT22;10122;50.074;19.920;2022-07-09T04:30:30;16.90;99.90
19920;DHT22;10122;50.074;19.920;2022-07-09T04:32:56;16.90;99.90
19920;DHT22;10122;50.074;19.920;2022-07-09T04:35:22;16.90;99.90
19920;DHT22;10122;50.074;19.920;2022-07-09T04:37:47;16.90;99.90
19920;DHT22;10122;50.074;19.920;2022-07-09T04:40:13;17.10;99.90
19920;DHT22;10122;50.074;19.920;2022-07-09T04:42:39;17.00;99.90
19920;DHT22;10122;50.074;19.920;2022-07-09T04:45:05;17.10;99.90
19920;DHT22;10122;50.074;19.920;2022-07-09T04:47:30;17.10;99.90
19920;DHT22;10122;50.074;19.920;2022-07-09T04:49:56;17.30;99.90
19920;DHT22;10122;50.074;19.920;2022-07-09T04:52:22;17.50;99.90
19920;DHT22;10122;50.074;19.920;2022-07-09T04:54:52;17.60;99.90
19920;DHT22;10122;50.074;19.920;2022-07-09T04:57:17;17.60;99.90
19920;DHT22;10122;50.074;19.920;2022-07-09T04:59:43;17.50;99.90
19920;DHT22;10122;50.074;19.920;2022-07-09T05:02:09;17.50;99.90
19920;DHT22;10122;50.074;19.920;2022-07-09T05:04:34;17.50;99.90
19920;DHT22;10122;50.074;19.920;2022-07-09T05:07:00;17.60;99.90
19920;DHT22;10122;50.074;19.920;2022-07-09T05:09:26;17.50;99.90
19920;DHT22;10122;50.074;19.920;2022-07-09T05:11:52;17.60;99.90
19920;DHT22;10122;50.074;19.920;2022-07-09T05:14:18;17.50;99.90
19920;DHT22;10122;50.074;19.920;2022-07-09T05:16:43;17.60;99.90
19920;DHT22;10122;50.074;19.920;2022-07-09T05:19:11;17.60;99.90
19920;DHT22;10122;50.074;19.920;2022-07-09T05:21:41;17.50;99.90
19920;DHT22;10122;50.074;19.920;2022-07-09T05:24:08;17.60;99.90
19920;DHT22;10122;50.074;19.920;2022-07-09T05:26:36;17.70;99.90
19920;DHT22;10122;50.074;19.920;2022-07-09T05:29:03;17.70;99.90
19920;DHT22;10122;50.074;19.920;2022-07-09T05:31:29;17.80;99.90
19920;DHT22;10122;50.074;19.920;2022-07-09T05:33:55;18.00;99.90
19920;DHT22;10122;50.074;19.920;2022-07-09T05:36:21;18.20;99.90
19920;DHT22;10122;50.074;19.920;2022-07-09T05:38:46;18.50;99.90
19920;DHT22;10122;50.074;19.920;2022-07-09T05:41:15;18.60;99.90
19920;DHT22;10122;50.074;19.920;2022-07-09T05:43:41;18.80;99.90
19920;DHT22;10122;50.074;19.920;2022-07-09T05:46:07;18.90;99.90
19920;DHT22;10122;50.074;19.920;2022-07-09T05:48:33;18.90;99.90
19920;DHT22;10122;50.074;19.920;2022-07-09T05:50:58;18.90;99.90
19920;DHT22;10122;50.074;19.920;2022-07-09T05:53:24;19.10;99.90
19920;DHT22;10122;50.074;19.920;2022-07-09T05:55:49;19.10;99.90
19920;DHT22;10122;50.074;19.920;2022-07-09T05:58:15;19.30;99.90
19920;DHT22;10122;50.074;19.920;2022-07-09T06:00:41;19.50;99.90
19920;DHT22;10122;50.074;19.920;2022-07-09T06:03:07;19.70;99.90
19920;DHT22;10122;50.074;19.920;2022-07-09T06:05:32;20.10;99.90
19920;DHT22;10122;50.074;19.920;2022-07-09T06:07:58;20.40;99.90
19920;DHT22;10122;50.074;19.920;2022-07-09T06:10:24;20.40;99.90
19920;DHT22;10122;50.074;19.920;2022-07-09T06:12:50;20.30;99.90
19920;DHT22;10122;50.074;19.920;2022-07-09T06:15:15;20.20;99.90
19920;DHT22;10122;50.074;19.920;2022-07-09T06:17:41;20.00;99.90
19920;DHT22;10122;50.074;19.920;2022-07-09T06:20:07;19.70;99.90
19920;DHT22;10122;50.074;19.920;2022-07-09T06:22:33;19.40;99.90
19920;DHT22;10122;50.074;19.920;2022-07-09T06:24:58;19.30;99.90
19920;DHT22;10122;50.074;19.920;2022-07-09T06:27:24;19.10;99.90
19920;DHT22;10122;50.074;19.920;2022-07-09T06:29:50;19.20;99.90
19920;DHT22;10122;50.074;19.920;2022-07-09T06:32:16;19.10;99.90
19920;DHT22;10122;50.074;19.920;2022-07-09T06:34:42;19.10;99.90
19920;DHT22;10122;50.074;19.920;2022-07-09T06:37:07;18.90;99.90
19920;DHT22;10122;50.074;19.920;2022-07-09T06:39:33;18.90;99.90
19920;DHT22;10122;50.074;19.920;2022-07-09T06:42:15;18.80;99.90
19920;DHT22;10122;50.074;19.920;2022-07-09T06:44:42;18.90;99.90
19920;DHT22;10122;50.074;19.920;2022-07-09T06:47:08;18.70;99.90
19920;DHT22;10122;50.074;19.920;2022-07-09T06:49:34;18.70;99.90
19920;DHT22;10122;50.074;19.920;2022-07-09T06:52:00;18.70;99.90
19920;DHT22;10122;50.074;19.920;2022-07-09T06:54:26;18.50;99.90
19920;DHT22;10122;50.074;19.920;2022-07-09T06:56:52;18.70;99.90
19920;DHT22;10122;50.074;19.920;2022-07-09T06:59:18;18.70;99.90
19920;DHT22;10122;50.074;19.920;2022-07-09T07:01:44;19.00;99.90
19920;DHT22;10122;50.074;19.920;2022-07-09T07:04:10;19.50;99.90
19920;DHT22;10122;50.074;19.920;2022-07-09T07:06:38;19.90;99.90
19920;DHT22;10122;50.074;19.920;2022-07-09T07:09:04;19.90;99.90
19920;DHT22;10122;50.074;19.920;2022-07-09T07:11:30;20.20;99.90
19920;DHT22;10122;50.074;19.920;2022-07-09T07:13:55;20.30;99.90
19920;DHT22;10122;50.074;19.920;2022-07-09T07:16:21;20.20;99.90
19920;DHT22;10122;50.074;19.920;2022-07-09T07:18:47;19.90;99.90
19920;DHT22;10122;50.074;19.920;2022-07-09T07:21:12;19.80;99.90
19920;DHT22;10122;50.074;19.920;2022-07-09T07:23:38;19.80;99.90
19920;DHT22;10122;50.074;19.920;2022-07-09T07:26:04;19.60;99.90
19920;DHT22;10122;50.074;19.920;2022-07-09T07:28:30;19.50;99.90
19920;DHT22;10122;50.074;19.920;2022-07-09T07:30:55;19.60;99.90
19920;DHT22;10122;50.074;19.920;2022-07-09T07:33:21;19.60;99.90
19920;DHT22;10122;50.074;19.920;2022-07-09T07:35:47;19.70;99.90
19920;DHT22;10122;50.074;19.920;2022-07-09T07:38:13;19.60;99.90
19920;DHT22;10122;50.074;19.920;2022-07-09T07:40:39;19.50;99.90
19920;DHT22;10122;50.074;19.920;2022-07-09T07:43:05;19.50;99.90
19920;DHT22;10122;50.074;19.920;2022-07-09T07:45:31;19.50;99.90
19920;DHT22;10122;50.074;19.920;2022-07-09T07:47:57;19.50;99.90
19920;DHT22;10122;50.074;19.920;2022-07-09T07:50:23;19.30;99.90
19920;DHT22;10122;50.074;19.920;2022-07-09T07:52:49;19.30;99.90
19920;DHT22;10122;50.074;19.920;2022-07-09T07:55:15;19.30;99.90
19920;DHT22;10122;50.074;19.920;2022-07-09T07:57:41;19.30;99.90
19920;DHT22;10122;50.074;19.920;2022-07-09T08:00:07;19.20;99.90
19920;DHT22;10122;50.074;19.920;2022-07-09T08:02:33;19.30;99.90
19920;DHT22;10122;50.074;19.920;2022-07-09T08:05:00;19.30;99.90
19920;DHT22;10122;50.074;19.920;2022-07-09T08:07:26;19.50;99.90
19920;DHT22;10122;50.074;19.920;2022-07-09T08:09:52;20.10;99.90
19920;DHT22;10122;50.074;19.920;2022-07-09T08:12:18;21.00;99.90
19920;DHT22;10122;50.074;19.920;2022-07-09T08:14:44;21.30;99.90
19920;DHT22;10122;50.074;19.920;2022-07-09T08:17:10;21.80;99.90
19920;DHT22;10122;50.074;19.920;2022-07-09T08:19:35;21.80;99.90
19920;DHT22;10122;50.074;19.920;2022-07-09T08:22:01;21.40;99.90
19920;DHT22;10122;50.074;19.920;2022-07-09T08:24:27;21.60;99.90
19920;DHT22;10122;50.074;19.920;2022-07-09T08:26:52;21.80;99.90
19920;DHT22;10122;50.074;19.920;2022-07-09T08:29:18;21.80;99.90
19920;DHT22;10122;50.074;19.920;2022-07-09T08:31:44;21.60;99.90
19920;DHT22;10122;50.074;19.920;2022-07-09T08:34:10;21.40;99.90
19920;DHT22;10122;50.074;19.920;2022-07-09T08:36:35;21.70;99.90
19920;DHT22;10122;50.074;19.920;2022-07-09T08:39:01;21.80;99.90
19920;DHT22;10122;50.074;19.920;2022-07-09T08:41:27;21.70;99.90
19920;DHT22;10122;50.074;19.920;2022-07-09T08:43:53;21.80;99.90
19920;DHT22;10122;50.074;19.920;2022-07-09T08:46:20;21.60;99.90
19920;DHT22;10122;50.074;19.920;2022-07-09T08:48:46;21.60;99.90
19920;DHT22;10122;50.074;19.920;2022-07-09T08:51:13;21.80;99.90
19920;DHT22;10122;50.074;19.920;2022-07-09T08:53:44;21.80;99.90
19920;DHT22;10122;50.074;19.920;2022-07-09T08:56:10;21.40;99.90
19920;DHT22;10122;50.074;19.920;2022-07-09T08:58:37;21.40;99.90
19920;DHT22;10122;50.074;19.920;2022-07-09T09:01:04;21.40;99.90
19920;DHT22;10122;50.074;19.920;2022-07-09T09:03:30;21.70;99.90
19920;DHT22;10122;50.074;19.920;2022-07-09T09:06:07;21.70;99.90
19920;DHT22;10122;50.074;19.920;2022-07-09T09:08:41;21.70;99.90
19920;DHT22;10122;50.074;19.920;2022-07-09T09:11:22;21.70;99.90
19920;DHT22;10122;50.074;19.920;2022-07-09T09:13:49;22.10;99.90
19920;DHT22;10122;50.074;19.920;2022-07-09T09:16:16;22.50;99.90
19920;DHT22;10122;50.074;19.920;2022-07-09T09:18:49;22.80;99.90
19920;DHT22;10122;50.074;19.920;2022-07-09T09:21:19;22.80;99.90
19920;DHT22;10122;50.074;19.920;2022-07-09T09:23:47;22.70;99.90
19920;DHT22;10122;50.074;19.920;2022-07-09T09:31:27;23.50;99.90
19920;DHT22;10122;50.074;19.920;2022-07-09T09:34:12;23.70;99.90
19920;DHT22;10122;50.074;19.920;2022-07-09T09:36:40;23.40;99.90
19920;DHT22;10122;50.074;19.920;2022-07-09T09:39:25;23.30;99.90
19920;DHT22;10122;50.074;19.920;2022-07-09T09:41:59;23.10;99.90
19920;DHT22;10122;50.074;19.920;2022-07-09T09:44:29;23.00;99.90
19920;DHT22;10122;50.074;19.920;2022-07-09T09:46:57;23.30;99.90
19920;DHT22;10122;50.074;19.920;2022-07-09T09:49:24;23.40;99.90
19920;DHT22;10122;50.074;19.920;2022-07-09T09:52:08;23.50;99.90
19920;DHT22;10122;50.074;19.920;2022-07-09T09:54:36;23.40;99.90
19920;DHT22;10122;50.074;19.920;2022-07-09T09:57:09;23.10;99.90
19920;DHT22;10122;50.074;19.920;2022-07-09T09:59:38;22.80;99.90
19920;DHT22;10122;50.074;19.920;2022-07-09T10:02:08;22.60;99.90
19920;DHT22;10122;50.074;19.920;2022-07-09T10:04:41;22.40;99.90
19920;DHT22;10122;50.074;19.920;2022-07-09T10:07:08;22.20;99.90
19920;DHT22;10122;50.074;19.920;2022-07-09T10:09:34;22.00;99.90
19920;DHT22;10122;50.074;19.920;2022-07-09T10:12:00;21.80;99.90
19920;DHT22;10122;50.074;19.920;2022-07-09T10:14:29;21.60;99.90
19920;DHT22;10122;50.074;19.920;2022-07-09T10:16:56;21.30;99.90
19920;DHT22;10122;50.074;19.920;2022-07-09T10:21:52;20.80;99.90
19920;DHT22;10122;50.074;19.920;2022-07-09T10:24:24;20.60;99.90
19920;DHT22;10122;50.074;19.920;2022-07-09T10:26:50;20.50;99.90
19920;DHT22;10122;50.074;19.920;2022-07-09T10:29:23;20.50;99.90
19920;DHT22;10122;50.074;19.920;2022-07-09T10:31:49;20.70;99.90
19920;DHT22;10122;50.074;19.920;2022-07-09T10:37:03;20.90;99.90
19920;DHT22;10122;50.074;19.920;2022-07-09T10:39:29;21.20;99.90
19920;DHT22;10122;50.074;19.920;2022-07-09T10:42:06;21.20;99.90
19920;DHT22;10122;50.074;19.920;2022-07-09T10:44:41;21.40;99.90
19920;DHT22;10122;50.074;19.920;2022-07-09T10:47:07;21.30;99.90
19920;DHT22;10122;50.074;19.920;2022-07-09T10:49:36;21.50;99.90
19920;DHT22;10122;50.074;19.920;2022-07-09T10:52:05;21.70;99.90
19920;DHT22;10122;50.074;19.920;2022-07-09T10:54:32;21.80;99.90
19920;DHT22;10122;50.074;19.920;2022-07-09T10:56:58;22.00;99.90
19920;DHT22;10122;50.074;19.920;2022-07-09T10:59:25;22.10;99.90
19920;DHT22;10122;50.074;19.920;2022-07-09T11:01:51;22.20;99.90
19920;DHT22;10122;50.074;19.920;2022-07-09T11:04:27;22.20;99.90
19920;DHT22;10122;50.074;19.920;2022-07-09T11:06:54;22.40;99.90
19920;DHT22;10122;50.074;19.920;2022-07-09T11:09:20;22.40;99.90
19920;DHT22;10122;50.074;19.920;2022-07-09T11:11:46;22.50;99.90
19920;DHT22;10122;50.074;19.920;2022-07-09T11:14:15;22.70;99.90
19920;DHT22;10122;50.074;19.920;2022-07-09T11:16:41;22.70;99.90
19920;DHT22;10122;50.074;19.920;2022-07-09T11:19:18;22.70;99.90
19920;DHT22;10122;50.074;19.920;2022-07-09T11:21:47;22.80;99.90
19920;DHT22;10122;50.074;19.920;2022-07-09T11:24:18;22.90;99.90
19920;DHT22;10122;50.074;19.920;2022-07-09T11:26:50;22.80;99.90
19920;DHT22;10122;50.074;19.920;2022-07-09T11:29:18;23.00;99.90
19920;DHT22;10122;50.074;19.920;2022-07-09T11:31:48;22.90;99.90
19920;DHT22;10122;50.074;19.920;2022-07-09T11:34:18;22.80;99.90
19920;DHT22;10122;50.074;19.920;2022-07-09T11:36:47;22.80;99.90
19920;DHT22;10122;50.074;19.920;2022-07-09T11:39:32;22.70;99.90
19920;DHT22;10122;50.074;19.920;2022-07-09T11:42:00;22.80;99.90
19920;DHT22;10122;50.074;19.920;2022-07-09T11:47:04;22.60;99.90
19920;DHT22;10122;50.074;19.920;2022-07-09T11:49:44;22.80;99.90
19920;DHT22;10122;50.074;19.920;2022-07-09T11:52:53;22.90;99.90
19920;DHT22;10122;50.074;19.920;2022-07-09T11:55:21;23.20;99.90
19920;DHT22;10122;50.074;19.920;2022-07-09T11:57:55;23.30;99.90
19920;DHT22;10122;50.074;19.920;2022-07-09T12:00:29;23.40;99.90
19920;DHT22;10122;50.074;19.920;2022-07-09T12:02:56;23.30;99.90
19920;DHT22;10122;50.074;19.920;2022-07-09T12:05:49;23.30;99.90
19920;DHT22;10122;50.074;19.920;2022-07-09T12:08:26;23.20;99.90
19920;DHT22;10122;50.074;19.920;2022-07-09T12:10:52;23.20;99.90
19920;DHT22;10122;50.074;19.920;2022-07-09T12:13:17;23.20;99.90
19920;DHT22;10122;50.074;19.920;2022-07-09T12:15:43;23.30;99.90
19920;DHT22;10122;50.074;19.920;2022-07-09T12:18:09;23.40;99.90
19920;DHT22;10122;50.074;19.920;2022-07-09T12:20:34;23.30;99.90
19920;DHT22;10122;50.074;19.920;2022-07-09T12:23:00;23.50;99.90
19920;DHT22;10122;50.074;19.920;2022-07-09T12:25:26;23.60;99.90
19920;DHT22;10122;50.074;19.920;2022-07-09T12:27:51;23.60;99.90
19920;DHT22;10122;50.074;19.920;2022-07-09T12:30:17;23.40;99.90
19920;DHT22;10122;50.074;19.920;2022-07-09T12:32:43;23.10;99.90
19920;DHT22;10122;50.074;19.920;2022-07-09T12:35:10;23.00;99.90
19920;DHT22;10122;50.074;19.920;2022-07-09T12:37:37;22.90;99.90
19920;DHT22;10122;50.074;19.920;2022-07-09T12:40:04;22.80;99.90
19920;DHT22;10122;50.074;19.920;2022-07-09T12:45:14;22.90;99.90
19920;DHT22;10122;50.074;19.920;2022-07-09T12:47:40;22.90;99.90
19920;DHT22;10122;50.074;19.920;2022-07-09T12:50:06;23.00;99.90
19920;DHT22;10122;50.074;19.920;2022-07-09T12:52:32;22.80;99.90
19920;DHT22;10122;50.074;19.920;2022-07-09T12:55:05;22.80;99.90
19920;DHT22;10122;50.074;19.920;2022-07-09T12:57:31;23.00;99.90
19920;DHT22;10122;50.074;19.920;2022-07-09T12:59:57;23.10;99.90
19920;DHT22;10122;50.074;19.920;2022-07-09T13:02:23;23.00;99.90
19920;DHT22;10122;50.074;19.920;2022-07-09T13:04:48;23.00;99.90
19920;DHT22;10122;50.074;19.920;2022-07-09T13:07:14;23.00;99.90
19920;DHT22;10122;50.074;19.920;2022-07-09T13:09:40;23.00;99.30
19920;DHT22;10122;50.074;19.920;2022-07-09T13:12:06;23.10;99.90
19920;DHT22;10122;50.074;19.920;2022-07-09T13:14:32;23.10;99.90
19920;DHT22;10122;50.074;19.920;2022-07-09T13:16:57;23.10;99.90
19920;DHT22;10122;50.074;19.920;2022-07-09T13:19:23;23.10;99.90
19920;DHT22;10122;50.074;19.920;2022-07-09T13:21:49;23.20;99.90
19920;DHT22;10122;50.074;19.920;2022-07-09T13:24:14;23.40;99.90
19920;DHT22;10122;50.074;19.920;2022-07-09T13:26:41;23.40;99.90
19920;DHT22;10122;50.074;19.920;2022-07-09T13:29:07;23.40;99.90
19920;DHT22;10122;50.074;19.920;2022-07-09T13:31:33;23.60;99.90
19920;DHT22;10122;50.074;19.920;2022-07-09T13:33:59;23.70;99.00
19920;DHT22;10122;50.074;19.920;2022-07-09T13:36:24;23.70;98.10
19920;DHT22;10122;50.074;19.920;2022-07-09T13:38:50;23.40;99.20
19920;DHT22;10122;50.074;19.920;2022-07-09T13:41:16;23.30;99.80
19920;DHT22;10122;50.074;19.920;2022-07-09T13:43:42;23.30;99.60
19920;DHT22;10122;50.074;19.920;2022-07-09T13:46:10;23.40;99.90
19920;DHT22;10122;50.074;19.920;2022-07-09T13:48:36;23.50;99.90
19920;DHT22;10122;50.074;19.920;2022-07-09T13:51:02;23.50;98.10
19920;DHT22;10122;50.074;19.920;2022-07-09T13:53:28;23.70;96.10
19920;DHT22;10122;50.074;19.920;2022-07-09T13:55:55;23.80;94.60
19920;DHT22;10122;50.074;19.920;2022-07-09T13:58:21;23.80;91.40
19920;DHT22;10122;50.074;19.920;2022-07-09T14:00:47;24.00;94.00
19920;DHT22;10122;50.074;19.920;2022-07-09T14:03:13;24.00;84.60
19920;DHT22;10122;50.074;19.920;2022-07-09T14:05:38;23.80;79.20
19920;DHT22;10122;50.074;19.920;2022-07-09T14:08:05;23.90;79.20
19920;DHT22;10122;50.074;19.920;2022-07-09T14:10:32;23.90;80.40
19920;DHT22;10122;50.074;19.920;2022-07-09T14:12:58;23.90;74.20
19920;DHT22;10122;50.074;19.920;2022-07-09T14:15:24;24.00;76.60
19920;DHT22;10122;50.074;19.920;2022-07-09T14:17:50;24.00;70.30
19920;DHT22;10122;50.074;19.920;2022-07-09T14:20:16;24.00;71.00
19920;DHT22;10122;50.074;19.920;2022-07-09T14:22:42;24.00;71.30
19920;DHT22;10122;50.074;19.920;2022-07-09T14:25:08;23.90;71.60
19920;DHT22;10122;50.074;19.920;2022-07-09T14:27:33;23.80;69.70
19920;DHT22;10122;50.074;19.920;2022-07-09T14:29:59;23.70;71.10
19920;DHT22;10122;50.074;19.920;2022-07-09T14:32:25;23.60;71.10
19920;DHT22;10122;50.074;19.920;2022-07-09T14:34:50;23.50;71.00
19920;DHT22;10122;50.074;19.920;2022-07-09T14:37:16;23.40;73.50
19920;DHT22;10122;50.074;19.920;2022-07-09T14:39:42;23.40;72.90
19920;DHT22;10122;50.074;19.920;2022-07-09T14:42:08;23.60;72.20
19920;DHT22;10122;50.074;19.920;2022-07-09T14:44:34;23.80;70.70
19920;DHT22;10122;50.074;19.920;2022-07-09T14:46:59;23.80;68.50
19920;DHT22;10122;50.074;19.920;2022-07-09T14:49:26;23.90;68.60
19920;DHT22;10122;50.074;19.920;2022-07-09T14:51:53;23.80;64.50
19920;DHT22;10122;50.074;19.920;2022-07-09T14:54:19;23.80;62.50
19920;DHT22;10122;50.074;19.920;2022-07-09T14:56:45;23.90;63.20
19920;DHT22;10122;50.074;19.920;2022-07-09T14:59:11;24.10;64.30
19920;DHT22;10122;50.074;19.920;2022-07-09T15:01:38;24.10;64.20
19920;DHT22;10122;50.074;19.920;2022-07-09T15:04:04;24.10;64.00
19920;DHT22;10122;50.074;19.920;2022-07-09T15:06:30;24.10;66.90
19920;DHT22;10122;50.074;19.920;2022-07-09T15:08:56;24.00;62.70
19920;DHT22;10122;50.074;19.920;2022-07-09T15:11:22;23.90;63.50
19920;DHT22;10122;50.074;19.920;2022-07-09T15:13:47;23.70;63.10
19920;DHT22;10122;50.074;19.920;2022-07-09T15:16:13;23.90;64.90
19920;DHT22;10122;50.074;19.920;2022-07-09T15:18:39;24.00;64.60
19920;DHT22;10122;50.074;19.920;2022-07-09T15:21:05;23.80;63.50
19920;DHT22;10122;50.074;19.920;2022-07-09T15:23:30;23.80;65.60
19920;DHT22;10122;50.074;19.920;2022-07-09T15:25:56;23.90;64.00
19920;DHT22;10122;50.074;19.920;2022-07-09T15:28:22;24.00;65.90